Pahoa, HI

6:54 AM HST on July 02, 2015 (GMT -1000)
Hawaiian Shores Rec. (Malolo St.) | | Change Station
CLOSE
Current Station
Personal Weather Station
Location: Pahoa, HI
Elevation: 217 ft
Nearby Weather Stations

Elev 217 ft 19.54 °N, 154.90 °W | Updated 14 seconds ago

Mostly Cloudy
Mostly Cloudy
75.0 °F
Feels Like 73 °F
N
0.0
Wind Variable Wind from WSW
Gusts 0.0 mph

Today
High -- | Low -- °F
--% Chance of Precip.
Yesterday
High -- | Low -- °F
Precip. -- in
5:45 AM 7:02 PM
Full, 100% visible
Pressure 29.90 in
Visibility 10.0 miles
Clouds Mostly Cloudy 4100 ft
Heat Index 73 °F
Dew Point 74 °F
Humidity 97%
Rainfall 0.07 in
Snow Depth Not available.
UV 1.0 out of 12
Pollen Not available.
Air Quality Not available.
Flu Activity Not available.
METAR PHTO 021553Z 00000KT 10SM BKN041 24/21 A2990 RMK AO2 RAB42E52 SLP124 P0000 T02390211

More Conditions Fewer Conditions

Pressure 29.90 in
Visibility 10.0 miles
Clouds Mostly Cloudy 4100 ft
Heat Index 73 °F
Dew Point 74 °F
Humidity 97%
Rainfall 0.07 in
Snow Depth Not available.
UV 1.0 out of 12
Pollen Not available.
Air Quality Not available.
Flu Activity Not available.
METAR PHTO 021553Z 00000KT 10SM BKN041 24/21 A2990 RMK AO2 RAB42E52 SLP124 P0000 T02390211

More Conditions Fewer Conditions

10-Day Weather Forecast

×

Almanac

Astronomy

Jul. 02, 2015 Rise Set
Actual Time
Civil Twilight
Nautical Twilight
Astronomical Twilight
Moon
Length of Visible Light
Length of Day
Tomorrow will be .
, % of the Moon is Illuminated

Today's Extremes

State Highs State Lows

Community

WunderPhotos

Upload Photos

1,834,498 photos uploaded!

WunderBlogs® & News

Nearby

Air Quality

  Air Quality AQ Index Pollutant
Not available.

Snow Depth

Station Depth Elevation

Earthquake Activity

City Distance Mag. Time & Date
Minimum magnitude displayed is 2.5.

Coastal Water Temperatures

Place Temperature

Stations

Nearby Weather Stations

Station Location Temp. Windchill Dew Point Humidity Wind Precip. Elev Updated Type